Time;durP1;ratioP1;P1;durP2;ratioP2;P2;SDS_P1;SDS_P2;PMS_P1;PMS_P2;Temp;Humidity;BMP_temperature;BMP_pressure;BME280_temperature;BME280_humidity;BME280_pressure;Samples;Min_cycle;Max_cycle;Signal;HPM_P1;HPM_P2
2021/12/25 00:01:03;;;;;;;;;;;5.80;98.60;;;;;;5079521;28;20131;-69
2021/12/25 00:03:29;;;;;;;;;;;5.70;98.60;;;;;;5079632;28;19970;-69
2021/12/25 00:05:54;;;;;;;;;;;5.70;98.60;;;;;;5085650;28;19917;-69
2021/12/25 00:08:21;;;;;;;;;;;5.70;98.60;;;;;;5082343;28;19912;-69
2021/12/25 00:10:47;;;;;;;;;;;5.70;98.60;;;;;;5093629;28;19923;-69
2021/12/25 00:13:13;;;;;;;;;;;5.70;98.50;;;;;;5082007;28;19920;-69
2021/12/25 00:15:39;;;;;;;;;;;5.70;98.50;;;;;;5090285;28;19994;-69
2021/12/25 00:18:05;;;;;;;;;;;5.70;98.60;;;;;;5086559;28;20377;-69
2021/12/25 00:20:30;;;;;;;;;;;5.70;98.60;;;;;;5091306;28;19951;-69
2021/12/25 00:22:56;;;;;;;;;;;5.70;98.50;;;;;;5084594;28;19919;-69
2021/12/25 00:25:23;;;;;;;;;;;5.70;98.50;;;;;;5087065;28;19932;-69
2021/12/25 00:30:34;;;;;;;;;;;5.70;98.60;;;;;;5087100;28;20250;-69
2021/12/25 00:33:17;;;;;;;;;;;5.70;98.60;;;;;;5084587;28;19966;-69
2021/12/25 00:35:42;;;;;;;;;;;5.70;98.50;;;;;;5082374;28;19920;-69
2021/12/25 00:38:08;;;;;;;;;;;5.70;98.60;;;;;;5089584;28;19917;-69
2021/12/25 00:40:33;;;;;;;;;;;5.60;98.60;;;;;;5082600;28;19943;-69
2021/12/25 00:42:59;;;;;;;;;;;5.60;98.50;;;;;;5089507;28;19919;-69
2021/12/25 00:45:24;;;;;;;;;;;5.60;98.50;;;;;;5087254;28;19955;-69
2021/12/25 00:47:50;;;;;;;;;;;5.60;98.50;;;;;;5085297;28;19961;-69
2021/12/25 00:50:15;;;;;;;;;;;5.60;98.50;;;;;;5090027;28;20018;-69
2021/12/25 00:52:41;;;;;;;;;;;5.60;98.50;;;;;;5085756;28;20388;-69
2021/12/25 00:55:08;;;;;;;;;;;5.60;98.50;;;;;;5085976;28;20380;-69
2021/12/25 00:57:34;;;;;;;;;;;5.60;98.50;;;;;;5082296;28;19993;-69
2021/12/25 00:59:59;;;;;;;;;;;5.60;98.60;;;;;;5104957;27;19930;-69
2021/12/25 01:02:25;;;;;;;;;;;5.50;98.50;;;;;;5090609;28;19967;-69
2021/12/25 01:04:50;;;;;;;;;;;5.50;98.40;;;;;;5087240;28;19909;-69
2021/12/25 01:07:16;;;;;;;;;;;5.60;98.50;;;;;;5078764;28;19912;-69
2021/12/25 01:09:41;;;;;;;;;;;5.50;98.50;;;;;;5087023;28;19919;-69
2021/12/25 01:12:07;;;;;;;;;;;5.50;98.50;;;;;;5084076;28;20342;-69
2021/12/25 01:14:49;;;;;;;;;;;5.50;98.50;;;;;;5088451;28;19920;-69
2021/12/25 01:17:44;;;;;;;;;;;5.50;98.50;;;;;;5080289;28;20292;-69
2021/12/25 01:41:15;;;;;;;;;;;5.50;98.50;;;;;;5088505;28;19954;-69
2021/12/25 01:49:09;;;;;;;;;;;5.40;98.40;;;;;;5086697;28;19916;-69
2021/12/25 01:51:35;;;;;;;;;;;5.40;98.40;;;;;;5080712;28;19913;-69
2021/12/25 01:54:01;;;;;;;;;;;5.40;98.40;;;;;;5088625;28;19951;-69
2021/12/25 01:56:26;;;;;;;;;;;5.40;98.40;;;;;;5082500;28;19957;-69
2021/12/25 01:58:52;;;;;;;;;;;5.40;98.40;;;;;;5088981;28;20026;-69
2021/12/25 02:01:18;;;;;;;;;;;5.30;98.40;;;;;;5089952;28;19915;-69
2021/12/25 02:03:43;;;;;;;;;;;5.30;98.40;;;;;;5091006;28;19937;-69
2021/12/25 02:06:10;;;;;;;;;;;5.30;98.40;;;;;;5084217;28;19916;-69
2021/12/25 02:08:37;;;;;;;;;;;5.30;98.40;;;;;;5088768;28;20046;-69
2021/12/25 02:11:04;;;;;;;;;;;5.30;98.40;;;;;;5093796;28;19974;-69
2021/12/25 02:13:30;;;;;;;;;;;5.30;98.40;;;;;;5089646;28;19947;-69
2021/12/25 02:15:57;;;;;;;;;;;5.30;98.40;;;;;;5084020;28;19944;-69
2021/12/25 02:18:55;;;;;;;;;;;5.30;98.30;;;;;;5087653;28;20355;-69
2021/12/25 02:21:20;;;;;;;;;;;5.30;98.30;;;;;;5078509;28;20597;-69
2021/12/25 02:23:46;;;;;;;;;;;5.30;98.30;;;;;;5089916;28;19923;-69
2021/12/25 02:26:12;;;;;;;;;;;5.30;98.30;;;;;;5077002;28;20389;-69
2021/12/25 02:28:37;;;;;;;;;;;5.30;98.30;;;;;;5087519;28;19939;-70
2021/12/25 02:31:05;;;;;;;;;;;5.30;98.30;;;;;;5095720;28;19923;-70
2021/12/25 02:33:31;;;;;;;;;;;5.30;98.30;;;;;;5087366;28;19908;-69
2021/12/25 02:35:56;;;;;;;;;;;5.20;98.30;;;;;;5076991;28;19920;-69
2021/12/25 02:38:23;;;;;;;;;;;5.20;98.30;;;;;;5089379;28;19947;-69
2021/12/25 02:40:50;;;;;;;;;;;5.20;98.30;;;;;;5076991;28;19999;-69
2021/12/25 02:43:16;;;;;;;;;;;5.20;98.30;;;;;;5088948;28;19927;-69
2021/12/25 02:45:41;;;;;;;;;;;5.20;98.20;;;;;;5074401;28;20258;-69
2021/12/25 02:48:08;;;;;;;;;;;5.20;98.20;;;;;;5085467;28;19939;-69
2021/12/25 02:50:35;;;;;;;;;;;5.20;98.20;;;;;;5081786;28;19927;-69
2021/12/25 02:53:01;;;;;;;;;;;5.20;98.20;;;;;;5088537;28;19928;-69
2021/12/25 02:55:27;;;;;;;;;;;5.20;98.20;;;;;;5089947;28;19966;-69
2021/12/25 02:57:53;;;;;;;;;;;5.10;98.20;;;;;;5083932;28;19912;-69
2021/12/25 03:00:22;;;;;;;;;;;5.20;98.20;;;;;;5077787;28;19999;-69
2021/12/25 03:02:48;;;;;;;;;;;5.20;98.20;;;;;;5079893;28;19917;-69
2021/12/25 03:05:14;;;;;;;;;;;5.10;98.20;;;;;;5085453;28;19916;-69
2021/12/25 03:07:40;;;;;;;;;;;5.10;98.50;;;;;;5084713;28;19920;-69
2021/12/25 03:10:07;;;;;;;;;;;5.10;98.20;;;;;;5086241;28;20379;-69
2021/12/25 03:12:46;;;;;;;;;;;5.10;98.20;;;;;;5081865;28;19969;-69
2021/12/25 03:15:16;;;;;;;;;;;5.10;98.20;;;;;;5082966;28;19912;-69
2021/12/25 03:17:41;;;;;;;;;;;5.10;98.20;;;;;;5081768;28;19919;-69
2021/12/25 03:20:08;;;;;;;;;;;5.10;98.20;;;;;;5075618;28;20316;-69
2021/12/25 03:22:35;;;;;;;;;;;5.10;98.10;;;;;;5092493;28;19919;-69
2021/12/25 03:25:01;;;;;;;;;;;5.00;98.10;;;;;;5085942;28;19950;-69
2021/12/25 03:27:26;;;;;;;;;;;5.10;98.10;;;;;;5079476;28;20344;-69
2021/12/25 03:29:52;;;;;;;;;;;5.00;98.10;;;;;;5082145;28;19923;-69
2021/12/25 03:32:18;;;;;;;;;;;5.00;98.00;;;;;;5079350;28;20611;-69
2021/12/25 03:34:43;;;;;;;;;;;5.00;98.10;;;;;;5077616;28;19919;-69
2021/12/25 03:37:10;;;;;;;;;;;5.00;98.10;;;;;;5082007;28;20364;-69
2021/12/25 03:39:35;;;;;;;;;;;5.00;98.10;;;;;;5080412;28;19912;-69
2021/12/25 03:42:01;;;;;;;;;;;5.00;98.10;;;;;;5079592;28;19924;-69
2021/12/25 03:44:28;;;;;;;;;;;5.00;98.10;;;;;;5080852;28;20007;-69
2021/12/25 03:46:58;;;;;;;;;;;5.00;98.10;;;;;;5084623;28;19999;-69
2021/12/25 03:49:35;;;;;;;;;;;5.00;98.00;;;;;;5083518;28;19912;-69
2021/12/25 03:57:48;;;;;;;;;;;5.00;98.00;;;;;;5086105;28;20339;-69
2021/12/25 04:00:16;;;;;;;;;;;4.90;98.00;;;;;;5084665;28;19917;-69
2021/12/25 04:02:53;;;;;;;;;;;4.90;98.00;;;;;;5088602;28;20112;-69
2021/12/25 04:05:24;;;;;;;;;;;4.90;98.00;;;;;;5083207;28;19926;-69
2021/12/25 04:10:18;;;;;;;;;;;4.90;98.00;;;;;;5084882;28;19916;-69
2021/12/25 04:12:43;;;;;;;;;;;4.90;98.00;;;;;;5082422;28;20276;-69
2021/12/25 04:15:09;;;;;;;;;;;4.90;97.90;;;;;;5082512;28;20364;-69
2021/12/25 04:17:34;;;;;;;;;;;4.90;97.90;;;;;;5087029;28;19918;-69
2021/12/25 04:20:03;;;;;;;;;;;4.90;97.90;;;;;;5076906;28;19939;-69
2021/12/25 04:22:36;;;;;;;;;;;4.90;97.90;;;;;;5088328;28;19923;-69
2021/12/25 04:25:02;;;;;;;;;;;4.90;97.80;;;;;;5080884;28;19927;-69
2021/12/25 04:27:27;;;;;;;;;;;4.90;97.90;;;;;;5082865;28;19920;-69
2021/12/25 04:30:01;;;;;;;;;;;4.90;97.90;;;;;;5082406;28;19916;-69
2021/12/25 05:02:23;;;;;;;;;;;4.70;97.70;;;;;;5087851;28;19919;-69
2021/12/25 05:04:55;;;;;;;;;;;4.70;97.60;;;;;;5080825;28;19984;-69
2021/12/25 05:07:20;;;;;;;;;;;4.70;97.70;;;;;;5087453;28;20006;-69
2021/12/25 05:09:46;;;;;;;;;;;4.70;97.70;;;;;;5083225;28;20011;-69
2021/12/25 05:12:11;;;;;;;;;;;4.70;97.70;;;;;;5086633;28;20399;-69
2021/12/25 05:14:38;;;;;;;;;;;4.70;97.60;;;;;;5086959;28;19993;-69
2021/12/25 05:17:06;;;;;;;;;;;4.70;97.70;;;;;;5085388;28;20325;-69
2021/12/25 05:19:31;;;;;;;;;;;4.70;97.70;;;;;;5102144;27;19999;-69
2021/12/25 05:21:57;;;;;;;;;;;4.70;97.60;;;;;;5087903;28;19995;-69
2021/12/25 05:24:22;;;;;;;;;;;4.70;97.70;;;;;;5085519;28;20280;-69
2021/12/25 05:26:48;;;;;;;;;;;4.70;97.70;;;;;;5083932;28;19916;-69
2021/12/25 05:29:22;;;;;;;;;;;4.70;97.60;;;;;;5083955;28;20361;-69
2021/12/25 05:31:47;;;;;;;;;;;4.60;97.60;;;;;;5085206;28;19916;-69
2021/12/25 05:34:13;;;;;;;;;;;4.60;97.60;;;;;;5084229;28;19914;-69
2021/12/25 05:36:38;;;;;;;;;;;4.60;97.50;;;;;;5084212;28;19973;-69
2021/12/25 05:39:08;;;;;;;;;;;4.60;97.60;;;;;;5085046;28;20019;-69
2021/12/25 05:41:34;;;;;;;;;;;4.60;97.60;;;;;;5088926;28;20469;-69
2021/12/25 05:43:59;;;;;;;;;;;4.60;97.50;;;;;;5086129;28;19917;-69
2021/12/25 05:46:25;;;;;;;;;;;4.60;97.50;;;;;;5084167;28;20441;-70
2021/12/25 05:48:50;;;;;;;;;;;4.60;97.80;;;;;;5084909;28;19912;-69
2021/12/25 05:51:16;;;;;;;;;;;4.60;97.50;;;;;;5086656;28;19920;-69
2021/12/25 05:53:42;;;;;;;;;;;4.60;97.50;;;;;;5089619;28;19922;-69
2021/12/25 05:56:08;;;;;;;;;;;4.60;97.50;;;;;;5087988;28;20392;-69
2021/12/25 05:58:34;;;;;;;;;;;4.60;97.40;;;;;;5083461;28;19919;-69
2021/12/25 06:00:59;;;;;;;;;;;4.60;97.50;;;;;;5088998;28;19920;-69
2021/12/25 06:03:25;;;;;;;;;;;4.60;97.30;;;;;;5082056;28;19969;-69
2021/12/25 06:05:50;;;;;;;;;;;4.50;97.40;;;;;;5086220;28;19931;-69
2021/12/25 06:08:16;;;;;;;;;;;4.50;97.40;;;;;;5085130;28;19916;-69
2021/12/25 06:10:42;;;;;;;;;;;4.50;97.50;;;;;;5086819;28;20353;-69
2021/12/25 06:13:10;;;;;;;;;;;4.50;97.40;;;;;;5085856;28;20285;-69
2021/12/25 06:15:36;;;;;;;;;;;4.50;97.40;;;;;;5084903;28;20433;-69
2021/12/25 06:18:02;;;;;;;;;;;4.50;97.40;;;;;;5089190;28;19915;-69
2021/12/25 06:20:28;;;;;;;;;;;4.50;97.40;;;;;;5084068;28;19912;-69
2021/12/25 06:22:53;;;;;;;;;;;4.50;97.40;;;;;;5087624;28;19912;-69
2021/12/25 06:25:19;;;;;;;;;;;4.50;97.40;;;;;;5083850;28;19931;-69
2021/12/25 06:27:44;;;;;;;;;;;4.50;97.40;;;;;;5088798;28;19914;-69
2021/12/25 06:30:10;;;;;;;;;;;4.40;97.20;;;;;;5096147;28;19912;-69
2021/12/25 06:32:36;;;;;;;;;;;4.40;97.40;;;;;;5089007;28;19912;-69
2021/12/25 06:35:02;;;;;;;;;;;4.50;97.40;;;;;;5081643;28;19916;-69
2021/12/25 06:37:27;;;;;;;;;;;4.40;97.30;;;;;;5088462;28;19962;-69
2021/12/25 06:39:53;;;;;;;;;;;4.40;97.30;;;;;;5079631;28;19916;-69
2021/12/25 06:42:19;;;;;;;;;;;4.40;97.30;;;;;;5088597;28;19952;-69
2021/12/25 06:44:45;;;;;;;;;;;4.40;97.30;;;;;;5080680;28;19958;-69
2021/12/25 06:47:10;;;;;;;;;;;4.40;97.30;;;;;;5087034;28;19959;-70
2021/12/25 06:49:36;;;;;;;;;;;4.40;97.30;;;;;;5079819;27;19954;-69
2021/12/25 06:52:02;;;;;;;;;;;4.40;97.30;;;;;;5086951;28;19923;-69
2021/12/25 06:54:28;;;;;;;;;;;4.30;97.30;;;;;;5089162;28;20020;-69
2021/12/25 06:56:53;;;;;;;;;;;4.40;97.20;;;;;;5100896;27;19919;-69
2021/12/25 06:59:21;;;;;;;;;;;4.30;97.30;;;;;;5082080;28;20280;-69
2021/12/25 07:01:47;;;;;;;;;;;4.30;97.30;;;;;;5084079;28;19912;-69
2021/12/25 07:04:12;;;;;;;;;;;4.30;97.30;;;;;;5084515;28;19923;-69
2021/12/25 07:06:39;;;;;;;;;;;4.30;97.30;;;;;;5084420;28;19920;-69
2021/12/25 07:09:06;;;;;;;;;;;4.30;97.30;;;;;;5082831;28;19946;-69
2021/12/25 07:11:32;;;;;;;;;;;4.30;97.30;;;;;;5085356;28;19927;-69
2021/12/25 07:14:00;;;;;;;;;;;4.30;97.20;;;;;;5082367;28;20327;-69
2021/12/25 07:16:26;;;;;;;;;;;4.30;97.20;;;;;;5098574;27;19916;-69
2021/12/25 07:18:51;;;;;;;;;;;4.30;97.20;;;;;;5084156;28;20365;-70
2021/12/25 07:21:17;;;;;;;;;;;4.30;97.10;;;;;;5082150;28;19974;-69
2021/12/25 07:23:42;;;;;;;;;;;4.30;97.20;;;;;;5081352;28;20000;-69
2021/12/25 07:26:08;;;;;;;;;;;4.30;97.10;;;;;;5086686;28;20026;-69
2021/12/25 07:28:34;;;;;;;;;;;4.30;97.20;;;;;;5084610;28;20037;-69
2021/12/25 07:31:00;;;;;;;;;;;4.30;97.10;;;;;;5087201;28;19973;-69
2021/12/25 07:33:26;;;;;;;;;;;4.30;97.10;;;;;;5081724;28;19943;-69
2021/12/25 07:35:52;;;;;;;;;;;4.20;97.10;;;;;;5085304;28;19920;-69
2021/12/25 07:38:18;;;;;;;;;;;4.20;97.10;;;;;;5086447;28;19943;-69
2021/12/25 07:40:44;;;;;;;;;;;4.20;97.10;;;;;;5085769;28;19920;-69
2021/12/25 07:43:10;;;;;;;;;;;4.20;97.00;;;;;;5080047;28;19965;-69
2021/12/25 07:45:36;;;;;;;;;;;4.20;97.30;;;;;;5088797;28;19924;-69
2021/12/25 07:48:03;;;;;;;;;;;4.20;97.10;;;;;;5086257;28;19915;-69
2021/12/25 07:50:30;;;;;;;;;;;4.20;97.10;;;;;;5085735;28;19912;-69
2021/12/25 07:52:56;;;;;;;;;;;4.20;97.10;;;;;;5081835;28;20277;-69
2021/12/25 07:55:21;;;;;;;;;;;4.10;97.00;;;;;;5084741;28;19916;-69
2021/12/25 07:57:47;;;;;;;;;;;4.10;97.00;;;;;;5082406;28;19917;-69
2021/12/25 08:00:13;;;;;;;;;;;4.10;97.00;;;;;;5092515;28;19958;-69
2021/12/25 08:02:40;;;;;;;;;;;4.10;97.00;;;;;;5083969;28;19919;-69
2021/12/25 08:05:06;;;;;;;;;;;4.10;97.00;;;;;;5083122;28;19912;-69
2021/12/25 08:07:31;;;;;;;;;;;4.10;96.90;;;;;;5084066;28;19912;-69
2021/12/25 08:10:11;;;;;;;;;;;4.10;97.00;;;;;;5081910;28;19919;-69
2021/12/25 08:12:36;;;;;;;;;;;4.10;96.90;;;;;;5083842;28;20415;-69
2021/12/25 08:15:02;;;;;;;;;;;4.10;96.90;;;;;;5082345;28;19916;-69
2021/12/25 08:17:27;;;;;;;;;;;4.10;96.90;;;;;;5098145;28;19912;-69
2021/12/25 08:19:53;;;;;;;;;;;4.10;96.90;;;;;;5078448;28;20582;-70
2021/12/25 08:22:18;;;;;;;;;;;4.10;96.90;;;;;;5088699;28;20007;-69
2021/12/25 08:24:46;;;;;;;;;;;4.10;96.90;;;;;;5081426;28;20320;-69
2021/12/25 08:27:12;;;;;;;;;;;4.10;96.80;;;;;;5084824;28;20611;-69
2021/12/25 08:29:37;;;;;;;;;;;4.10;96.90;;;;;;5074896;28;19956;-69
2021/12/25 08:32:03;;;;;;;;;;;4.10;96.90;;;;;;5088680;28;19985;-69
2021/12/25 08:34:29;;;;;;;;;;;4.10;96.90;;;;;;5081457;28;19919;-69
2021/12/25 08:36:54;;;;;;;;;;;4.00;97.10;;;;;;5105297;27;19908;-69
2021/12/25 08:39:20;;;;;;;;;;;4.00;96.80;;;;;;5075815;28;19965;-69
2021/12/25 08:41:45;;;;;;;;;;;4.00;96.80;;;;;;5088742;28;19915;-69
2021/12/25 08:44:31;;;;;;;;;;;4.00;96.70;;;;;;5079645;28;20611;-69
2021/12/25 08:46:59;;;;;;;;;;;4.00;96.80;;;;;;5091398;28;19956;-69
2021/12/25 08:49:28;;;;;;;;;;;4.00;96.70;;;;;;5093257;28;19988;-69
2021/12/25 08:51:55;;;;;;;;;;;4.00;96.70;;;;;;5089689;28;20061;-69
2021/12/25 08:54:21;;;;;;;;;;;4.00;96.70;;;;;;5084434;28;19919;-70
2021/12/25 08:56:46;;;;;;;;;;;4.00;96.70;;;;;;5088958;28;19912;-70
2021/12/25 08:59:12;;;;;;;;;;;4.00;96.70;;;;;;5086415;28;19927;-69
2021/12/25 09:01:37;;;;;;;;;;;4.00;96.70;;;;;;5087625;28;20262;-70
2021/12/25 09:04:03;;;;;;;;;;;4.00;96.80;;;;;;5084660;28;19916;-69
2021/12/25 09:06:29;;;;;;;;;;;4.00;96.70;;;;;;5082933;28;19912;-69
2021/12/25 09:08:54;;;;;;;;;;;4.00;96.70;;;;;;5081023;28;20306;-69
2021/12/25 09:11:21;;;;;;;;;;;4.00;96.80;;;;;;5084140;28;20380;-69
2021/12/25 09:13:48;;;;;;;;;;;4.00;96.80;;;;;;5078958;28;20387;-69
2021/12/25 09:16:13;;;;;;;;;;;4.00;96.60;;;;;;5084548;28;19912;-69
2021/12/25 09:18:39;;;;;;;;;;;4.00;96.80;;;;;;5083544;28;19918;-70
2021/12/25 09:21:04;;;;;;;;;;;3.90;96.80;;;;;;5087258;28;19935;-69
2021/12/25 09:23:30;;;;;;;;;;;3.90;96.70;;;;;;5085014;28;20442;-70
2021/12/25 09:25:55;;;;;;;;;;;4.00;96.70;;;;;;5084151;28;19959;-70
2021/12/25 09:28:21;;;;;;;;;;;3.90;96.60;;;;;;5078096;28;19912;-69
2021/12/25 09:30:46;;;;;;;;;;;3.90;96.60;;;;;;5086475;28;19916;-69
2021/12/25 09:33:12;;;;;;;;;;;3.90;96.60;;;;;;5083844;28;19916;-69
2021/12/25 09:35:37;;;;;;;;;;;3.90;96.60;;;;;;5088435;27;20367;-69
2021/12/25 09:38:03;;;;;;;;;;;3.90;96.60;;;;;;5082263;28;20311;-69
2021/12/25 09:40:28;;;;;;;;;;;3.90;96.60;;;;;;5085960;28;19927;-69
2021/12/25 09:42:55;;;;;;;;;;;3.90;96.60;;;;;;5079839;28;19936;-69
2021/12/25 09:45:21;;;;;;;;;;;3.90;96.70;;;;;;5084531;28;20050;-69
2021/12/25 09:47:46;;;;;;;;;;;3.90;96.60;;;;;;5082198;28;20020;-70
2021/12/25 09:50:12;;;;;;;;;;;3.90;96.60;;;;;;5088317;28;19954;-69
2021/12/25 09:52:39;;;;;;;;;;;3.90;96.60;;;;;;5085938;28;19912;-69
2021/12/25 09:55:04;;;;;;;;;;;3.90;96.50;;;;;;5088597;28;20007;-69
2021/12/25 09:57:30;;;;;;;;;;;3.90;96.50;;;;;;5084949;28;20014;-69
2021/12/25 09:59:56;;;;;;;;;;;3.90;96.50;;;;;;5088184;28;19919;-69
2021/12/25 10:02:21;;;;;;;;;;;3.90;96.60;;;;;;5080903;28;20399;-70
2021/12/25 10:04:51;;;;;;;;;;;3.90;96.50;;;;;;5088672;28;19920;-69
2021/12/25 10:07:20;;;;;;;;;;;3.90;96.50;;;;;;5085818;28;19912;-69
2021/12/25 10:10:04;;;;;;;;;;;3.90;96.50;;;;;;5083073;28;19921;-70
2021/12/25 10:12:37;;;;;;;;;;;3.90;96.40;;;;;;5085084;28;19944;-69
2021/12/25 10:15:04;;;;;;;;;;;3.90;96.50;;;;;;5098985;27;19916;-69
2021/12/25 10:17:31;;;;;;;;;;;3.90;96.60;;;;;;5084947;28;19970;-69
2021/12/25 10:20:03;;;;;;;;;;;3.90;96.40;;;;;;5084281;28;19912;-69
2021/12/25 10:22:29;;;;;;;;;;;3.90;96.40;;;;;;5088770;28;19920;-69
2021/12/25 10:25:10;;;;;;;;;;;3.90;96.30;;;;;;5082851;28;19912;-69
2021/12/25 10:27:35;;;;;;;;;;;3.80;96.20;;;;;;5087059;28;19916;-70
2021/12/25 10:30:03;;;;;;;;;;;3.90;96.40;;;;;;5084860;28;19966;-70
2021/12/25 10:32:29;;;;;;;;;;;3.90;96.40;;;;;;5087070;28;19943;-69
2021/12/25 10:34:54;;;;;;;;;;;3.90;96.40;;;;;;5088661;28;19959;-69
2021/12/25 10:37:21;;;;;;;;;;;3.80;96.30;;;;;;5083686;28;19959;-69
2021/12/25 10:39:47;;;;;;;;;;;3.90;96.30;;;;;;5081856;28;20003;-69
2021/12/25 10:42:18;;;;;;;;;;;3.90;96.30;;;;;;5087457;28;19908;-69
2021/12/25 10:44:44;;;;;;;;;;;3.90;96.30;;;;;;5081810;28;19949;-69
2021/12/25 10:47:17;;;;;;;;;;;3.90;96.30;;;;;;5087345;28;19916;-69
2021/12/25 10:49:43;;;;;;;;;;;3.90;96.30;;;;;;5085884;28;19920;-70
2021/12/25 10:52:13;;;;;;;;;;;3.90;96.40;;;;;;5076850;28;20668;-69
2021/12/25 10:54:44;;;;;;;;;;;3.90;96.40;;;;;;5079768;28;19923;-69
2021/12/25 10:57:10;;;;;;;;;;;3.90;96.40;;;;;;5091090;28;19944;-69
2021/12/25 10:59:45;;;;;;;;;;;3.90;96.40;;;;;;5083123;28;20009;-69
2021/12/25 11:02:27;;;;;;;;;;;3.90;96.30;;;;;;5086242;28;19939;-70
2021/12/25 11:04:52;;;;;;;;;;;3.90;96.50;;;;;;5082602;28;20034;-69
2021/12/25 11:07:18;;;;;;;;;;;3.90;96.40;;;;;;5087415;28;19998;-69
2021/12/25 11:10:02;;;;;;;;;;;3.90;96.30;;;;;;5086229;28;19908;-70
2021/12/25 11:12:29;;;;;;;;;;;3.90;96.30;;;;;;5089233;28;19919;-69
2021/12/25 11:15:08;;;;;;;;;;;3.90;96.30;;;;;;5087545;28;19912;-69
2021/12/25 11:17:35;;;;;;;;;;;3.90;96.20;;;;;;5086076;28;19911;-69
2021/12/25 11:20:02;;;;;;;;;;;3.90;96.20;;;;;;5088414;28;20429;-69
2021/12/25 11:22:43;;;;;;;;;;;3.90;96.20;;;;;;5081682;28;19912;-69
2021/12/25 11:25:09;;;;;;;;;;;3.90;96.40;;;;;;5086860;28;19912;-70
2021/12/25 11:27:35;;;;;;;;;;;3.80;96.20;;;;;;5088037;28;20077;-69
2021/12/25 11:30:02;;;;;;;;;;;3.90;96.40;;;;;;5091833;28;20389;-70
2021/12/25 11:32:27;;;;;;;;;;;3.80;96.20;;;;;;5082177;28;19912;-70
2021/12/25 11:34:53;;;;;;;;;;;3.90;96.30;;;;;;5084111;28;20297;-69
2021/12/25 11:37:18;;;;;;;;;;;3.90;96.10;;;;;;5087124;28;19916;-69
2021/12/25 11:39:51;;;;;;;;;;;3.80;96.10;;;;;;5087566;28;19916;-70
2021/12/25 11:42:17;;;;;;;;;;;3.80;96.30;;;;;;5085346;28;20006;-70
2021/12/25 11:44:48;;;;;;;;;;;3.80;96.20;;;;;;5088696;28;20010;-69
2021/12/25 11:47:33;;;;;;;;;;;3.80;96.20;;;;;;5083063;28;19926;-69
2021/12/25 11:50:00;;;;;;;;;;;3.80;96.20;;;;;;5087438;28;20334;-69
2021/12/25 11:52:35;;;;;;;;;;;3.80;96.20;;;;;;5083477;28;20372;-69
2021/12/25 11:58:37;;;;;;;;;;;3.80;95.90;;;;;;5055233;28;20034;-69
2021/12/25 12:01:21;;;;;;;;;;;3.80;95.60;;;;;;5092185;28;19908;-69
2021/12/25 12:03:54;;;;;;;;;;;3.70;95.70;;;;;;5081833;28;19913;-69
2021/12/25 12:06:58;;;;;;;;;;;3.70;96.10;;;;;;5084730;28;20234;-69
2021/12/25 12:09:28;;;;;;;;;;;3.70;95.90;;;;;;5043063;28;19944;-70
2021/12/25 12:12:02;;;;;;;;;;;3.70;95.90;;;;;;5042428;28;19932;-69
2021/12/25 12:14:28;;;;;;;;;;;3.70;95.90;;;;;;5070033;28;19943;-69
2021/12/25 12:16:55;;;;;;;;;;;3.70;95.80;;;;;;5080805;28;20021;-69
2021/12/25 12:19:29;;;;;;;;;;;3.70;95.80;;;;;;5084890;28;20420;-70
2021/12/25 12:21:55;;;;;;;;;;;3.80;95.80;;;;;;5082962;28;19909;-70
2021/12/25 12:25:14;;;;;;;;;;;3.70;95.80;;;;;;5087046;28;20376;-69
2021/12/25 12:27:29;;;;;;;;;;;3.70;95.70;;;;;;5086328;28;19920;-70
2021/12/25 12:29:57;;;;;;;;;;;3.70;95.70;;;;;;5084763;28;19916;-70
2021/12/25 12:32:23;;;;;;;;;;;3.70;95.70;;;;;;5083230;28;19964;-69
2021/12/25 12:34:51;;;;;;;;;;;3.70;95.70;;;;;;5084480;28;19963;-69
2021/12/25 12:37:16;;;;;;;;;;;3.70;95.70;;;;;;5084515;28;20456;-69
2021/12/25 12:39:54;;;;;;;;;;;3.70;95.70;;;;;;5083121;28;19912;-70
2021/12/25 12:42:22;;;;;;;;;;;3.70;95.60;;;;;;5085929;28;19916;-69
2021/12/25 12:44:49;;;;;;;;;;;3.70;95.70;;;;;;5082802;28;19942;-69
2021/12/25 12:47:18;;;;;;;;;;;3.70;95.60;;;;;;5084815;28;19917;-69
2021/12/25 12:49:50;;;;;;;;;;;3.70;95.70;;;;;;5084584;28;20007;-69
2021/12/25 12:52:18;;;;;;;;;;;3.70;95.60;;;;;;5082688;28;20418;-69
2021/12/25 12:54:51;;;;;;;;;;;3.60;95.70;;;;;;5087295;28;19939;-69
2021/12/25 12:57:18;;;;;;;;;;;3.60;95.70;;;;;;5083650;28;19918;-69
2021/12/25 12:59:45;;;;;;;;;;;3.60;95.70;;;;;;5090381;28;19955;-69
2021/12/25 13:02:11;;;;;;;;;;;3.70;95.70;;;;;;5081987;28;19916;-69
2021/12/25 13:04:51;;;;;;;;;;;3.60;95.70;;;;;;5088088;28;20389;-69
2021/12/25 13:07:18;;;;;;;;;;;3.60;95.60;;;;;;5083460;28;19979;-69
2021/12/25 13:09:51;;;;;;;;;;;3.60;95.50;;;;;;5086493;28;19921;-70
2021/12/25 13:15:25;;;;;;;;;;;3.60;95.60;;;;;;5073145;28;20780;-70
2021/12/25 13:17:56;;;;;;;;;;;3.60;95.60;;;;;;5086093;28;20003;-69
2021/12/25 13:20:51;;;;;;;;;;;3.60;95.40;;;;;;5084423;28;20376;-70
2021/12/25 13:23:18;;;;;;;;;;;3.50;95.50;;;;;;5077981;28;20007;-70
2021/12/25 13:25:49;;;;;;;;;;;3.50;95.30;;;;;;5080432;28;19932;-69
2021/12/25 13:28:15;;;;;;;;;;;3.50;95.30;;;;;;5088772;28;20276;-70
2021/12/25 13:30:43;;;;;;;;;;;3.50;95.50;;;;;;5084191;28;19965;-69
2021/12/25 13:33:13;;;;;;;;;;;3.50;95.20;;;;;;5083715;28;20003;-69
2021/12/25 13:35:39;;;;;;;;;;;3.50;95.40;;;;;;5082337;28;20012;-69
2021/12/25 13:38:05;;;;;;;;;;;3.50;95.30;;;;;;5082091;28;19999;-69
2021/12/25 13:40:31;;;;;;;;;;;3.50;95.30;;;;;;5085481;28;19975;-69
2021/12/25 13:43:03;;;;;;;;;;;3.50;95.30;;;;;;5078161;28;19916;-69
2021/12/25 13:45:28;;;;;;;;;;;3.50;95.30;;;;;;5088562;28;19912;-69
2021/12/25 13:47:57;;;;;;;;;;;3.50;95.20;;;;;;5083437;28;19989;-69
2021/12/25 13:50:23;;;;;;;;;;;3.40;95.20;;;;;;5087936;28;20007;-69
2021/12/25 13:53:06;;;;;;;;;;;3.40;95.20;;;;;;5085519;28;20042;-69
2021/12/25 13:55:32;;;;;;;;;;;3.40;95.20;;;;;;5086941;28;19912;-69
2021/12/25 13:57:59;;;;;;;;;;;3.40;95.20;;;;;;5083102;28;19923;-69
2021/12/25 14:00:25;;;;;;;;;;;3.40;95.20;;;;;;5085050;28;20381;-69
2021/12/25 14:02:51;;;;;;;;;;;3.40;95.20;;;;;;5082156;28;19937;-69
2021/12/25 14:05:18;;;;;;;;;;;3.40;95.10;;;;;;5084025;28;20357;-69
2021/12/25 14:07:44;;;;;;;;;;;3.40;95.10;;;;;;5079329;28;19981;-69
2021/12/25 14:10:11;;;;;;;;;;;3.40;95.10;;;;;;5091285;28;20358;-69
2021/12/25 14:12:38;;;;;;;;;;;3.40;95.10;;;;;;5083712;28;19965;-69
2021/12/25 14:15:04;;;;;;;;;;;3.40;95.00;;;;;;5085546;28;19916;-69
2021/12/25 14:17:31;;;;;;;;;;;3.30;95.10;;;;;;5083057;28;19916;-69
2021/12/25 14:20:04;;;;;;;;;;;3.40;95.00;;;;;;5089802;28;19923;-69
2021/12/25 14:22:30;;;;;;;;;;;3.40;94.90;;;;;;5084016;28;20432;-69
2021/12/25 14:24:55;;;;;;;;;;;3.30;94.90;;;;;;5087747;28;19915;-70
2021/12/25 14:27:22;;;;;;;;;;;3.30;95.00;;;;;;5083949;28;19923;-69
2021/12/25 14:29:48;;;;;;;;;;;3.30;94.90;;;;;;5080793;28;20006;-69
2021/12/25 14:32:32;;;;;;;;;;;3.30;94.90;;;;;;5082885;28;19969;-70
2021/12/25 14:34:58;;;;;;;;;;;3.30;94.90;;;;;;5082405;28;20016;-69
2021/12/25 14:37:34;;;;;;;;;;;3.30;94.80;;;;;;5082217;28;20007;-70
2021/12/25 14:40:20;;;;;;;;;;;3.30;94.80;;;;;;5080837;28;19912;-70
2021/12/25 14:42:57;;;;;;;;;;;3.30;94.80;;;;;;5080780;28;20405;-69
2021/12/25 14:45:24;;;;;;;;;;;3.30;94.70;;;;;;5075700;28;19916;-69
2021/12/25 14:47:50;;;;;;;;;;;3.30;94.70;;;;;;5082644;28;19956;-69
2021/12/25 14:50:17;;;;;;;;;;;3.30;94.80;;;;;;5077576;28;19913;-69
2021/12/25 14:52:42;;;;;;;;;;;3.30;94.70;;;;;;5083702;28;19950;-69
2021/12/25 14:55:16;;;;;;;;;;;3.30;94.70;;;;;;5081299;28;20001;-69
2021/12/25 14:57:41;;;;;;;;;;;3.30;94.70;;;;;;5082862;28;20002;-69
2021/12/25 15:00:07;;;;;;;;;;;3.20;94.70;;;;;;5081123;28;20008;-69
2021/12/25 15:02:33;;;;;;;;;;;3.20;94.70;;;;;;5085743;28;19957;-69
2021/12/25 15:04:58;;;;;;;;;;;3.20;94.60;;;;;;5086274;28;19955;-69
2021/12/25 15:07:24;;;;;;;;;;;3.20;94.60;;;;;;5086805;28;19920;-69
2021/12/25 15:09:51;;;;;;;;;;;3.20;94.50;;;;;;5084173;28;19939;-69
2021/12/25 15:12:21;;;;;;;;;;;3.20;94.60;;;;;;5083103;28;19938;-70
2021/12/25 15:14:48;;;;;;;;;;;3.10;94.50;;;;;;5083383;28;19951;-69
2021/12/25 15:17:20;;;;;;;;;;;3.10;94.60;;;;;;5083814;28;19916;-70
2021/12/25 15:19:47;;;;;;;;;;;3.10;94.50;;;;;;5082136;28;19920;-70
2021/12/25 15:22:16;;;;;;;;;;;3.10;94.40;;;;;;5084173;28;20384;-70
2021/12/25 15:24:52;;;;;;;;;;;3.10;94.50;;;;;;5081661;28;19912;-70
2021/12/25 15:27:47;;;;;;;;;;;3.10;94.50;;;;;;5087667;28;19916;-69
2021/12/25 15:30:14;;;;;;;;;;;3.00;94.40;;;;;;5070084;28;20442;-69
2021/12/25 15:32:41;;;;;;;;;;;3.00;94.30;;;;;;5084136;28;19978;-69
2021/12/25 15:35:08;;;;;;;;;;;3.00;94.30;;;;;;5078771;28;19913;-69
2021/12/25 15:37:38;;;;;;;;;;;3.00;94.40;;;;;;5082089;28;19938;-69
2021/12/25 15:40:09;;;;;;;;;;;3.00;94.30;;;;;;5082236;28;20515;-70
2021/12/25 15:42:34;;;;;;;;;;;3.00;94.30;;;;;;5079400;28;19918;-69
2021/12/25 15:45:00;;;;;;;;;;;2.90;94.30;;;;;;5078458;28;20006;-70
2021/12/25 15:47:25;;;;;;;;;;;2.90;94.30;;;;;;5090632;28;20389;-70
2021/12/25 15:49:51;;;;;;;;;;;2.90;94.20;;;;;;5085740;28;19951;-69